sensor_id;sensor_type;location;lat;lon;timestamp;pressure;altitude;pressure_sealevel;temperature;humidity
57114;BME280;42994;51.606;9.988;2023-04-23T00:01:36;98187.88;;;14.69;100.00
57114;BME280;42994;51.606;9.988;2023-04-23T00:04:07;98182.03;;;14.60;100.00
57114;BME280;42994;51.606;9.988;2023-04-23T00:06:34;98179.59;;;14.58;100.00
57114;BME280;42994;51.606;9.988;2023-04-23T00:09:02;98180.75;;;14.63;100.00
57114;BME280;42994;51.606;9.988;2023-04-23T00:11:29;98166.09;;;14.47;100.00
57114;BME280;42994;51.606;9.988;2023-04-23T00:13:57;98180.97;;;14.37;100.00
57114;BME280;42994;51.606;9.988;2023-04-23T00:16:25;98177.22;;;14.50;100.00
57114;BME280;42994;51.606;9.988;2023-04-23T00:18:52;98177.09;;;14.57;100.00
57114;BME280;42994;51.606;9.988;2023-04-23T00:21:19;98176.97;;;14.40;100.00
57114;BME280;42994;51.606;9.988;2023-04-23T00:23:45;98171.13;;;14.43;100.00
57114;BME280;42994;51.606;9.988;2023-04-23T00:26:12;98179.09;;;14.50;100.00
57114;BME280;42994;51.606;9.988;2023-04-23T00:28:39;98175.72;;;14.31;100.00
57114;BME280;42994;51.606;9.988;2023-04-23T00:31:08;98177.72;;;14.23;100.00
57114;BME280;42994;51.606;9.988;2023-04-23T00:33:35;98183.44;;;14.27;100.00
57114;BME280;42994;51.606;9.988;2023-04-23T00:36:03;98176.16;;;14.39;100.00
57114;BME280;42994;51.606;9.988;2023-04-23T00:38:29;98178.66;;;14.17;100.00
57114;BME280;42994;51.606;9.988;2023-04-23T00:40:56;98177.97;;;14.22;100.00
57114;BME280;42994;51.606;9.988;2023-04-23T00:43:23;98180.66;;;14.22;100.00
57114;BME280;42994;51.606;9.988;2023-04-23T00:45:50;98177.16;;;14.10;100.00
57114;BME280;42994;51.606;9.988;2023-04-23T00:48:18;98172.69;;;14.03;100.00
57114;BME280;42994;51.606;9.988;2023-04-23T00:50:45;98168.81;;;13.99;100.00
57114;BME280;42994;51.606;9.988;2023-04-23T00:53:12;98173.03;;;14.07;100.00
57114;BME280;42994;51.606;9.988;2023-04-23T00:55:39;98175.72;;;14.19;100.00
57114;BME280;42994;51.606;9.988;2023-04-23T00:58:05;98170.59;;;14.06;100.00
57114;BME280;42994;51.606;9.988;2023-04-23T01:00:37;98172.47;;;14.17;100.00
57114;BME280;42994;51.606;9.988;2023-04-23T01:03:06;98167.66;;;13.95;100.00
57114;BME280;42994;51.606;9.988;2023-04-23T01:05:34;98160.72;;;13.76;100.00
57114;BME280;42994;51.606;9.988;2023-04-23T01:08:01;98166.59;;;13.73;100.00
57114;BME280;42994;51.606;9.988;2023-04-23T01:10:28;98159.56;;;13.60;100.00
57114;BME280;42994;51.606;9.988;2023-04-23T01:12:57;98157.19;;;13.52;100.00
57114;BME280;42994;51.606;9.988;2023-04-23T01:15:24;98152.75;;;13.57;100.00
57114;BME280;42994;51.606;9.988;2023-04-23T01:17:51;98157.28;;;13.45;100.00
57114;BME280;42994;51.606;9.988;2023-04-23T01:20:18;98157.56;;;13.55;100.00
57114;BME280;42994;51.606;9.988;2023-04-23T01:22:46;98155.47;;;13.81;100.00
57114;BME280;42994;51.606;9.988;2023-04-23T01:25:13;98152.63;;;13.40;100.00
57114;BME280;42994;51.606;9.988;2023-04-23T01:27:40;98151.22;;;13.50;100.00
57114;BME280;42994;51.606;9.988;2023-04-23T01:30:07;98148.75;;;13.48;100.00
57114;BME280;42994;51.606;9.988;2023-04-23T01:32:35;98166.09;;;13.52;100.00
57114;BME280;42994;51.606;9.988;2023-04-23T01:35:03;98155.81;;;13.73;100.00
57114;BME280;42994;51.606;9.988;2023-04-23T01:37:31;98153.00;;;13.68;100.00
57114;BME280;42994;51.606;9.988;2023-04-23T01:39:59;98150.53;;;13.66;100.00
57114;BME280;42994;51.606;9.988;2023-04-23T01:42:26;98151.22;;;13.61;100.00
57114;BME280;42994;51.606;9.988;2023-04-23T01:44:53;98149.38;;;13.62;100.00
57114;BME280;42994;51.606;9.988;2023-04-23T01:47:20;98148.75;;;13.48;100.00
57114;BME280;42994;51.606;9.988;2023-04-23T01:49:47;98140.81;;;13.53;100.00
57114;BME280;42994;51.606;9.988;2023-04-23T01:52:13;98146.88;;;13.49;100.00
57114;BME280;42994;51.606;9.988;2023-04-23T01:54:40;98133.09;;;13.26;100.00
57114;BME280;42994;51.606;9.988;2023-04-23T01:57:08;98129.69;;;13.07;100.00
57114;BME280;42994;51.606;9.988;2023-04-23T01:59:35;98127.44;;;13.04;100.00
57114;BME280;42994;51.606;9.988;2023-04-23T02:02:02;98119.72;;;13.08;100.00
57114;BME280;42994;51.606;9.988;2023-04-23T02:04:30;98122.78;;;13.12;100.00
57114;BME280;42994;51.606;9.988;2023-04-23T02:06:56;98123.88;;;12.92;100.00
57114;BME280;42994;51.606;9.988;2023-04-23T02:09:24;98121.84;;;13.06;100.00
57114;BME280;42994;51.606;9.988;2023-04-23T02:11:51;98124.06;;;13.09;100.00
57114;BME280;42994;51.606;9.988;2023-04-23T02:14:19;98121.91;;;12.99;100.00
57114;BME280;42994;51.606;9.988;2023-04-23T02:16:46;98116.06;;;12.91;100.00
57114;BME280;42994;51.606;9.988;2023-04-23T02:19:12;98114.41;;;12.89;100.00
57114;BME280;42994;51.606;9.988;2023-04-23T02:21:41;98113.81;;;12.87;100.00
57114;BME280;42994;51.606;9.988;2023-04-23T02:24:07;98116.59;;;12.81;100.00
57114;BME280;42994;51.606;9.988;2023-04-23T02:26:35;98108.03;;;12.72;100.00
57114;BME280;42994;51.606;9.988;2023-04-23T02:29:02;98096.91;;;12.68;100.00
57114;BME280;42994;51.606;9.988;2023-04-23T02:31:30;98105.47;;;12.77;100.00
57114;BME280;42994;51.606;9.988;2023-04-23T02:33:57;98110.19;;;12.82;100.00
57114;BME280;42994;51.606;9.988;2023-04-23T02:36:24;98109.25;;;12.88;100.00
57114;BME280;42994;51.606;9.988;2023-04-23T02:38:53;98114.28;;;12.84;100.00
57114;BME280;42994;51.606;9.988;2023-04-23T02:41:19;98108.59;;;12.93;100.00
57114;BME280;42994;51.606;9.988;2023-04-23T02:43:46;98108.22;;;12.89;100.00
57114;BME280;42994;51.606;9.988;2023-04-23T02:46:13;98109.84;;;12.60;100.00
57114;BME280;42994;51.606;9.988;2023-04-23T02:48:41;98112.56;;;12.41;100.00
57114;BME280;42994;51.606;9.988;2023-04-23T02:51:10;98112.81;;;12.70;100.00
57114;BME280;42994;51.606;9.988;2023-04-23T02:53:37;98111.09;;;12.08;100.00
57114;BME280;42994;51.606;9.988;2023-04-23T02:56:04;98117.66;;;11.87;100.00
57114;BME280;42994;51.606;9.988;2023-04-23T02:58:32;98121.53;;;11.73;100.00
57114;BME280;42994;51.606;9.988;2023-04-23T03:01:00;98131.66;;;11.96;100.00
57114;BME280;42994;51.606;9.988;2023-04-23T03:03:28;98131.28;;;11.92;100.00
57114;BME280;42994;51.606;9.988;2023-04-23T03:06:00;98135.75;;;11.99;100.00
57114;BME280;42994;51.606;9.988;2023-04-23T03:08:27;98135.72;;;12.05;100.00
57114;BME280;42994;51.606;9.988;2023-04-23T03:10:54;98128.78;;;11.72;100.00
57114;BME280;42994;51.606;9.988;2023-04-23T03:13:21;98133.97;;;11.67;100.00
57114;BME280;42994;51.606;9.988;2023-04-23T03:15:49;98129.97;;;11.51;100.00
57114;BME280;42994;51.606;9.988;2023-04-23T03:18:16;98133.72;;;11.50;100.00
57114;BME280;42994;51.606;9.988;2023-04-23T03:20:46;98132.56;;;11.40;100.00
57114;BME280;42994;51.606;9.988;2023-04-23T03:23:15;98134.28;;;11.27;100.00
57114;BME280;42994;51.606;9.988;2023-04-23T03:25:43;98135.06;;;11.34;100.00
57114;BME280;42994;51.606;9.988;2023-04-23T03:28:10;98135.19;;;11.21;100.00
57114;BME280;42994;51.606;9.988;2023-04-23T03:30:37;98133.69;;;11.25;100.00
57114;BME280;42994;51.606;9.988;2023-04-23T03:33:04;98137.16;;;11.32;100.00
57114;BME280;42994;51.606;9.988;2023-04-23T03:35:30;98144.59;;;11.30;100.00
57114;BME280;42994;51.606;9.988;2023-04-23T03:38:00;98133.13;;;11.16;100.00
57114;BME280;42994;51.606;9.988;2023-04-23T03:40:28;98134.72;;;11.24;100.00
57114;BME280;42994;51.606;9.988;2023-04-23T03:42:59;98133.97;;;11.17;100.00
57114;BME280;42994;51.606;9.988;2023-04-23T03:45:42;98128.53;;;11.24;100.00
57114;BME280;42994;51.606;9.988;2023-04-23T03:48:09;98136.59;;;11.24;100.00
57114;BME280;42994;51.606;9.988;2023-04-23T03:50:36;98139.75;;;11.14;100.00
57114;BME280;42994;51.606;9.988;2023-04-23T03:53:15;98129.28;;;11.06;100.00
57114;BME280;42994;51.606;9.988;2023-04-23T03:56:03;98139.16;;;11.12;100.00
57114;BME280;42994;51.606;9.988;2023-04-23T03:58:35;98144.53;;;11.12;100.00
57114;BME280;42994;51.606;9.988;2023-04-23T04:01:02;98139.00;;;11.00;100.00
57114;BME280;42994;51.606;9.988;2023-04-23T04:03:29;98147.19;;;11.12;100.00
57114;BME280;42994;51.606;9.988;2023-04-23T04:05:56;98148.56;;;10.89;100.00
57114;BME280;42994;51.606;9.988;2023-04-23T04:08:25;98145.63;;;10.98;100.00
57114;BME280;42994;51.606;9.988;2023-04-23T04:10:54;98147.91;;;11.01;100.00
57114;BME280;42994;51.606;9.988;2023-04-23T04:13:22;98147.72;;;10.95;100.00
57114;BME280;42994;51.606;9.988;2023-04-23T04:15:48;98148.56;;;10.89;100.00
57114;BME280;42994;51.606;9.988;2023-04-23T04:18:15;98158.88;;;10.86;100.00
57114;BME280;42994;51.606;9.988;2023-04-23T04:20:42;98162.72;;;11.03;100.00
57114;BME280;42994;51.606;9.988;2023-04-23T04:23:09;98161.03;;;10.77;100.00
57114;BME280;42994;51.606;9.988;2023-04-23T04:25:36;98152.75;;;10.78;100.00
57114;BME280;42994;51.606;9.988;2023-04-23T04:28:04;98161.75;;;10.91;100.00
57114;BME280;42994;51.606;9.988;2023-04-23T04:30:33;98165.81;;;11.07;100.00
57114;BME280;42994;51.606;9.988;2023-04-23T04:33:00;98166.63;;;11.07;100.00
57114;BME280;42994;51.606;9.988;2023-04-23T04:35:28;98172.53;;;11.16;100.00
57114;BME280;42994;51.606;9.988;2023-04-23T04:37:54;98176.59;;;10.93;100.00
57114;BME280;42994;51.606;9.988;2023-04-23T04:40:21;98176.94;;;11.04;100.00
57114;BME280;42994;51.606;9.988;2023-04-23T04:42:48;98181.09;;;11.00;100.00
57114;BME280;42994;51.606;9.988;2023-04-23T04:45:15;98184.16;;;11.10;100.00
57114;BME280;42994;51.606;9.988;2023-04-23T04:47:43;98176.38;;;10.95;100.00
57114;BME280;42994;51.606;9.988;2023-04-23T04:50:10;98164.41;;;10.98;100.00
57114;BME280;42994;51.606;9.988;2023-04-23T04:52:37;98163.34;;;10.99;100.00
57114;BME280;42994;51.606;9.988;2023-04-23T04:55:04;98168.97;;;10.97;100.00
57114;BME280;42994;51.606;9.988;2023-04-23T04:57:31;98171.25;;;10.93;100.00
57114;BME280;42994;51.606;9.988;2023-04-23T05:00:00;98178.09;;;10.83;100.00
57114;BME280;42994;51.606;9.988;2023-04-23T05:02:29;98180.44;;;10.66;100.00
57114;BME280;42994;51.606;9.988;2023-04-23T05:04:57;98178.16;;;10.69;100.00
57114;BME280;42994;51.606;9.988;2023-04-23T05:07:24;98182.88;;;10.74;100.00
57114;BME280;42994;51.606;9.988;2023-04-23T05:09:50;98185.34;;;10.75;100.00
57114;BME280;42994;51.606;9.988;2023-04-23T05:12:17;98175.88;;;10.73;100.00
57114;BME280;42994;51.606;9.988;2023-04-23T05:14:44;98182.81;;;10.87;100.00
57114;BME280;42994;51.606;9.988;2023-04-23T05:17:10;98181.13;;;10.93;100.00
57114;BME280;42994;51.606;9.988;2023-04-23T05:19:37;98188.84;;;10.76;100.00
57114;BME280;42994;51.606;9.988;2023-04-23T05:22:06;98185.34;;;10.75;100.00
57114;BME280;42994;51.606;9.988;2023-04-23T05:24:33;98185.78;;;10.66;100.00
57114;BME280;42994;51.606;9.988;2023-04-23T05:26:59;98182.50;;;10.64;100.00
57114;BME280;42994;51.606;9.988;2023-04-23T05:29:26;98185.56;;;10.74;100.00
57114;BME280;42994;51.606;9.988;2023-04-23T05:31:53;98188.06;;;10.69;100.00
57114;BME280;42994;51.606;9.988;2023-04-23T05:34:20;98188.25;;;10.67;100.00
57114;BME280;42994;51.606;9.988;2023-04-23T05:36:46;98184.56;;;10.62;100.00
57114;BME280;42994;51.606;9.988;2023-04-23T05:39:14;98181.69;;;10.56;100.00
57114;BME280;42994;51.606;9.988;2023-04-23T05:41:41;98182.28;;;10.72;100.00
57114;BME280;42994;51.606;9.988;2023-04-23T05:44:08;98182.28;;;10.65;100.00
57114;BME280;42994;51.606;9.988;2023-04-23T05:46:34;98182.88;;;10.74;100.00
57114;BME280;42994;51.606;9.988;2023-04-23T05:49:01;98186.59;;;10.73;100.00
57114;BME280;42994;51.606;9.988;2023-04-23T05:51:28;98189.94;;;10.62;100.00
57114;BME280;42994;51.606;9.988;2023-04-23T05:53:54;98189.06;;;10.74;100.00
57114;BME280;42994;51.606;9.988;2023-04-23T05:56:22;98187.84;;;10.70;100.00
57114;BME280;42994;51.606;9.988;2023-04-23T05:58:49;98188.66;;;10.71;100.00
57114;BME280;42994;51.606;9.988;2023-04-23T06:01:16;98191.53;;;10.69;100.00
57114;BME280;42994;51.606;9.988;2023-04-23T06:03:43;98187.25;;;10.68;100.00
57114;BME280;42994;51.606;9.988;2023-04-23T06:06:09;98185.84;;;10.59;100.00
57114;BME280;42994;51.606;9.988;2023-04-23T06:08:36;98181.66;;;10.70;100.00
57114;BME280;42994;51.606;9.988;2023-04-23T06:11:03;98180.38;;;10.79;100.00
57114;BME280;42994;51.606;9.988;2023-04-23T06:13:31;98172.09;;;10.87;100.00
57114;BME280;42994;51.606;9.988;2023-04-23T06:15:59;98185.94;;;10.84;100.00
57114;BME280;42994;51.606;9.988;2023-04-23T06:18:25;98192.75;;;10.80;100.00
57114;BME280;42994;51.606;9.988;2023-04-23T06:20:52;98195.28;;;10.62;100.00
57114;BME280;42994;51.606;9.988;2023-04-23T06:23:21;98199.44;;;10.57;100.00
57114;BME280;42994;51.606;9.988;2023-04-23T06:25:48;98201.91;;;10.52;100.00
57114;BME280;42994;51.606;9.988;2023-04-23T06:28:14;98203.34;;;10.62;100.00
57114;BME280;42994;51.606;9.988;2023-04-23T06:31:02;98191.78;;;10.68;100.00
57114;BME280;42994;51.606;9.988;2023-04-23T06:33:30;98203.84;;;10.84;100.00
57114;BME280;42994;51.606;9.988;2023-04-23T06:35:56;98204.72;;;10.77;100.00
57114;BME280;42994;51.606;9.988;2023-04-23T06:38:23;98198.69;;;10.82;100.00
57114;BME280;42994;51.606;9.988;2023-04-23T06:40:50;98199.09;;;10.86;100.00
57114;BME280;42994;51.606;9.988;2023-04-23T06:43:17;98194.31;;;11.01;100.00
57114;BME280;42994;51.606;9.988;2023-04-23T06:46:17;98186.47;;;11.00;100.00
57114;BME280;42994;51.606;9.988;2023-04-23T06:48:43;98190.53;;;11.09;100.00
57114;BME280;42994;51.606;9.988;2023-04-23T06:51:11;98195.69;;;11.42;100.00
57114;BME280;42994;51.606;9.988;2023-04-23T06:53:37;98190.38;;;11.35;100.00
57114;BME280;42994;51.606;9.988;2023-04-23T06:56:04;98191.16;;;11.43;100.00
57114;BME280;42994;51.606;9.988;2023-04-23T06:58:32;98189.63;;;11.79;100.00
57114;BME280;42994;51.606;9.988;2023-04-23T07:01:04;98194.53;;;11.88;100.00
57114;BME280;42994;51.606;9.988;2023-04-23T07:03:34;98191.50;;;11.78;100.00
57114;BME280;42994;51.606;9.988;2023-04-23T07:06:01;98186.78;;;11.73;100.00
57114;BME280;42994;51.606;9.988;2023-04-23T07:08:28;98195.06;;;11.72;100.00
57114;BME280;42994;51.606;9.988;2023-04-23T07:10:55;98199.97;;;11.75;100.00
57114;BME280;42994;51.606;9.988;2023-04-23T07:13:22;98198.91;;;11.83;100.00
57114;BME280;42994;51.606;9.988;2023-04-23T07:15:49;98212.16;;;11.78;100.00
57114;BME280;42994;51.606;9.988;2023-04-23T07:18:16;98209.78;;;11.88;100.00
57114;BME280;42994;51.606;9.988;2023-04-23T07:20:44;98223.19;;;11.95;100.00
57114;BME280;42994;51.606;9.988;2023-04-23T07:23:11;98221.41;;;11.82;100.00
57114;BME280;42994;51.606;9.988;2023-04-23T07:25:37;98225.91;;;11.88;100.00
57114;BME280;42994;51.606;9.988;2023-04-23T07:28:04;98220.34;;;12.33;100.00
57114;BME280;42994;51.606;9.988;2023-04-23T07:30:31;98225.94;;;12.31;100.00
57114;BME280;42994;51.606;9.988;2023-04-23T07:32:58;98237.72;;;12.12;100.00
57114;BME280;42994;51.606;9.988;2023-04-23T07:35:25;98243.50;;;12.16;100.00
57114;BME280;42994;51.606;9.988;2023-04-23T07:37:53;98252.84;;;12.50;100.00
57114;BME280;42994;51.606;9.988;2023-04-23T07:40:22;98259.69;;;12.27;100.00
57114;BME280;42994;51.606;9.988;2023-04-23T07:42:50;98257.72;;;12.41;100.00
57114;BME280;42994;51.606;9.988;2023-04-23T07:45:17;98262.63;;;12.44;100.00
57114;BME280;42994;51.606;9.988;2023-04-23T07:47:44;98259.97;;;12.19;100.00
57114;BME280;42994;51.606;9.988;2023-04-23T07:50:11;98251.91;;;12.81;100.00
57114;BME280;42994;51.606;9.988;2023-04-23T07:52:38;98263.38;;;12.52;100.00
57114;BME280;42994;51.606;9.988;2023-04-23T07:55:07;98256.97;;;12.53;100.00
57114;BME280;42994;51.606;9.988;2023-04-23T07:57:34;98243.75;;;12.69;100.00
57114;BME280;42994;51.606;9.988;2023-04-23T08:00:01;98255.03;;;12.78;100.00
57114;BME280;42994;51.606;9.988;2023-04-23T08:02:37;98263.09;;;12.78;100.00
57114;BME280;42994;51.606;9.988;2023-04-23T08:05:04;98270.78;;;12.93;100.00
57114;BME280;42994;51.606;9.988;2023-04-23T08:07:31;98264.88;;;13.03;100.00
57114;BME280;42994;51.606;9.988;2023-04-23T08:09:58;98257.63;;;13.52;100.00
57114;BME280;42994;51.606;9.988;2023-04-23T08:12:29;98251.66;;;13.50;100.00
57114;BME280;42994;51.606;9.988;2023-04-23T08:14:58;98255.72;;;13.41;100.00
57114;BME280;42994;51.606;9.988;2023-04-23T08:17:32;98244.28;;;13.57;100.00
57114;BME280;42994;51.606;9.988;2023-04-23T08:19:58;98243.06;;;13.72;100.00
57114;BME280;42994;51.606;9.988;2023-04-23T08:22:25;98252.44;;;13.69;100.00
57114;BME280;42994;51.606;9.988;2023-04-23T08:24:51;98240.72;;;13.75;100.00
57114;BME280;42994;51.606;9.988;2023-04-23T08:27:18;98242.91;;;13.67;100.00
57114;BME280;42994;51.606;9.988;2023-04-23T08:29:46;98241.47;;;14.41;100.00
57114;BME280;42994;51.606;9.988;2023-04-23T08:32:13;98244.75;;;14.43;100.00
57114;BME280;42994;51.606;9.988;2023-04-23T08:34:39;98249.78;;;14.64;100.00
57114;BME280;42994;51.606;9.988;2023-04-23T08:37:06;98250.88;;;14.63;100.00
57114;BME280;42994;51.606;9.988;2023-04-23T08:39:33;98244.00;;;14.95;100.00
57114;BME280;42994;51.606;9.988;2023-04-23T08:42:04;98245.00;;;15.64;100.00
57114;BME280;42994;51.606;9.988;2023-04-23T08:44:37;98246.88;;;15.17;100.00
57114;BME280;42994;51.606;9.988;2023-04-23T08:47:06;98246.09;;;15.34;100.00
57114;BME280;42994;51.606;9.988;2023-04-23T08:49:40;98245.31;;;15.50;100.00
57114;BME280;42994;51.606;9.988;2023-04-23T08:52:14;98246.94;;;15.51;100.00
57114;BME280;42994;51.606;9.988;2023-04-23T08:54:45;98240.38;;;15.47;100.00
57114;BME280;42994;51.606;9.988;2023-04-23T08:57:15;98241.59;;;15.11;100.00
57114;BME280;42994;51.606;9.988;2023-04-23T08:59:42;98240.63;;;15.74;100.00
57114;BME280;42994;51.606;9.988;2023-04-23T09:02:10;98242.91;;;15.08;100.00
57114;BME280;42994;51.606;9.988;2023-04-23T09:04:37;98247.69;;;16.26;100.00
57114;BME280;42994;51.606;9.988;2023-04-23T09:07:04;98240.34;;;16.44;100.00
57114;BME280;42994;51.606;9.988;2023-04-23T09:09:35;98231.03;;;16.34;100.00
57114;BME280;42994;51.606;9.988;2023-04-23T09:12:03;98238.16;;;16.41;100.00
57114;BME280;42994;51.606;9.988;2023-04-23T09:14:30;98240.56;;;16.03;100.00
57114;BME280;42994;51.606;9.988;2023-04-23T09:16:57;98239.91;;;15.79;100.00
57114;BME280;42994;51.606;9.988;2023-04-23T09:19:26;98243.03;;;16.61;100.00
57114;BME280;42994;51.606;9.988;2023-04-23T09:21:53;98240.53;;;16.76;100.00
57114;BME280;42994;51.606;9.988;2023-04-23T09:24:21;98239.22;;;16.40;100.00
57114;BME280;42994;51.606;9.988;2023-04-23T09:26:49;98237.66;;;16.83;100.00
57114;BME280;42994;51.606;9.988;2023-04-23T09:29:18;98234.31;;;17.20;100.00
57114;BME280;42994;51.606;9.988;2023-04-23T09:31:46;98232.75;;;16.80;100.00
57114;BME280;42994;51.606;9.988;2023-04-23T09:34:13;98222.47;;;16.60;100.00
57114;BME280;42994;51.606;9.988;2023-04-23T09:36:42;98218.50;;;16.28;100.00
57114;BME280;42994;51.606;9.988;2023-04-23T09:39:13;98224.41;;;16.25;100.00
57114;BME280;42994;51.606;9.988;2023-04-23T09:41:39;98211.94;;;16.24;100.00
57114;BME280;42994;51.606;9.988;2023-04-23T09:44:06;98209.00;;;16.43;100.00
57114;BME280;42994;51.606;9.988;2023-04-23T09:46:34;98200.38;;;16.68;100.00
57114;BME280;42994;51.606;9.988;2023-04-23T09:49:03;98200.81;;;16.82;100.00
57114;BME280;42994;51.606;9.988;2023-04-23T09:51:32;98198.91;;;17.54;100.00
57114;BME280;42994;51.606;9.988;2023-04-23T09:54:00;98188.25;;;17.74;100.00
57114;BME280;42994;51.606;9.988;2023-04-23T09:56:28;98195.44;;;18.28;100.00
57114;BME280;42994;51.606;9.988;2023-04-23T09:58:55;98197.91;;;17.92;100.00
57114;BME280;42994;51.606;9.988;2023-04-23T10:01:27;98192.22;;;17.94;98.39
57114;BME280;42994;51.606;9.988;2023-04-23T10:03:54;98188.09;;;18.29;100.00
57114;BME280;42994;51.606;9.988;2023-04-23T10:06:26;98186.00;;;17.66;96.02
57114;BME280;42994;51.606;9.988;2023-04-23T10:16:52;98191.19;;;18.00;98.45
57114;BME280;42994;51.606;9.988;2023-04-23T10:21:04;98197.69;;;17.39;94.24
57114;BME280;42994;51.606;9.988;2023-04-23T10:24:39;98201.69;;;16.43;95.96
57114;BME280;42994;51.606;9.988;2023-04-23T10:35:00;98196.25;;;17.59;99.29
57114;BME280;42994;51.606;9.988;2023-04-23T10:38:30;98199.38;;;17.45;99.24
57114;BME280;42994;51.606;9.988;2023-04-23T10:41:59;98189.09;;;18.07;97.87
57114;BME280;42994;51.606;9.988;2023-04-23T10:45:11;98184.38;;;17.97;96.47
57114;BME280;42994;51.606;9.988;2023-04-23T10:47:40;98181.31;;;17.89;95.21
57114;BME280;42994;51.606;9.988;2023-04-23T10:50:19;98188.28;;;17.20;93.24
57114;BME280;42994;51.606;9.988;2023-04-23T10:52:46;98183.56;;;17.64;98.39
57114;BME280;42994;51.606;9.988;2023-04-23T10:55:34;98188.81;;;17.76;98.04
57114;BME280;42994;51.606;9.988;2023-04-23T10:58:03;98169.69;;;17.88;96.84
57114;BME280;42994;51.606;9.988;2023-04-23T11:00:43;98183.19;;;18.20;96.71
57114;BME280;42994;51.606;9.988;2023-04-23T11:03:29;98179.28;;;18.49;97.84
57114;BME280;42994;51.606;9.988;2023-04-23T11:05:59;98176.84;;;18.52;94.07
57114;BME280;42994;51.606;9.988;2023-04-23T11:08:28;98167.16;;;17.81;89.47
57114;BME280;42994;51.606;9.988;2023-04-23T11:10:57;98171.94;;;18.01;92.81
57114;BME280;42994;51.606;9.988;2023-04-23T11:13:24;98164.41;;;17.76;90.53
57114;BME280;42994;51.606;9.988;2023-04-23T11:16:11;98173.50;;;17.92;93.97
57114;BME280;42994;51.606;9.988;2023-04-23T11:18:57;98170.47;;;17.89;95.06
57114;BME280;42994;51.606;9.988;2023-04-23T11:22:00;98154.91;;;18.06;93.53
57114;BME280;42994;51.606;9.988;2023-04-23T11:24:29;98167.94;;;18.14;95.45
57114;BME280;42994;51.606;9.988;2023-04-23T11:26:56;98163.94;;;18.22;92.35
57114;BME280;42994;51.606;9.988;2023-04-23T11:29:24;98158.81;;;18.31;91.90
57114;BME280;42994;51.606;9.988;2023-04-23T11:31:52;98156.88;;;18.21;90.42
57114;BME280;42994;51.606;9.988;2023-04-23T11:34:19;98163.66;;;18.18;88.95
57114;BME280;42994;51.606;9.988;2023-04-23T11:36:47;98156.72;;;18.43;89.21
57114;BME280;42994;51.606;9.988;2023-04-23T11:39:16;98143.03;;;18.17;84.07
57114;BME280;42994;51.606;9.988;2023-04-23T11:41:43;98156.16;;;18.41;87.50
57114;BME280;42994;51.606;9.988;2023-04-23T11:44:11;98146.75;;;18.59;86.96
57114;BME280;42994;51.606;9.988;2023-04-23T11:46:38;98139.88;;;18.36;88.22
57114;BME280;42994;51.606;9.988;2023-04-23T11:49:09;98137.81;;;18.58;87.81
57114;BME280;42994;51.606;9.988;2023-04-23T11:51:40;98130.97;;;18.51;85.31
57114;BME280;42994;51.606;9.988;2023-04-23T11:54:09;98128.63;;;18.80;87.49
57114;BME280;42994;51.606;9.988;2023-04-23T11:56:38;98121.94;;;18.30;78.97
57114;BME280;42994;51.606;9.988;2023-04-23T11:59:05;98127.97;;;18.47;83.47
57114;BME280;42994;51.606;9.988;2023-04-23T12:01:42;98126.03;;;19.00;86.22
57114;BME280;42994;51.606;9.988;2023-04-23T12:04:12;98110.56;;;19.21;83.08
57114;BME280;42994;51.606;9.988;2023-04-23T12:06:50;98111.91;;;18.98;82.07
57114;BME280;42994;51.606;9.988;2023-04-23T12:09:21;98101.34;;;19.23;82.68
57114;BME280;42994;51.606;9.988;2023-04-23T12:11:49;98103.19;;;18.91;81.26
57114;BME280;42994;51.606;9.988;2023-04-23T12:14:17;98103.50;;;19.36;84.18
57114;BME280;42994;51.606;9.988;2023-04-23T12:16:46;98100.25;;;19.18;77.92
57114;BME280;42994;51.606;9.988;2023-04-23T12:19:17;98090.75;;;19.21;77.54
57114;BME280;42994;51.606;9.988;2023-04-23T12:21:51;98097.78;;;19.27;81.64
57114;BME280;42994;51.606;9.988;2023-04-23T12:24:20;98096.19;;;19.47;79.11
57114;BME280;42994;51.606;9.988;2023-04-23T12:26:51;98092.91;;;19.29;77.93
57114;BME280;42994;51.606;9.988;2023-04-23T12:29:21;98101.34;;;19.53;78.60
57114;BME280;42994;51.606;9.988;2023-04-23T12:31:48;98099.72;;;19.52;76.94
57114;BME280;42994;51.606;9.988;2023-04-23T12:34:16;98097.25;;;19.46;77.13
57114;BME280;42994;51.606;9.988;2023-04-23T12:36:45;98094.00;;;19.59;76.58
57114;BME280;42994;51.606;9.988;2023-04-23T12:39:23;98091.28;;;19.80;79.16
57114;BME280;42994;51.606;9.988;2023-04-23T12:41:52;98083.13;;;19.74;80.47
57114;BME280;42994;51.606;9.988;2023-04-23T12:44:20;98077.16;;;19.21;72.90
57114;BME280;42994;51.606;9.988;2023-04-23T12:46:53;98075.50;;;19.51;75.91
57114;BME280;42994;51.606;9.988;2023-04-23T12:49:20;98087.47;;;19.60;76.71
57114;BME280;42994;51.606;9.988;2023-04-23T12:51:47;98077.69;;;19.85;75.98
57114;BME280;42994;51.606;9.988;2023-04-23T12:54:14;98074.69;;;19.81;75.87
57114;BME280;42994;51.606;9.988;2023-04-23T12:56:41;98077.41;;;19.76;73.90
57114;BME280;42994;51.606;9.988;2023-04-23T12:59:11;98073.34;;;19.37;75.52
57114;BME280;42994;51.606;9.988;2023-04-23T13:01:38;98071.72;;;19.83;76.42
57114;BME280;42994;51.606;9.988;2023-04-23T13:04:06;98070.00;;;20.02;73.59
57114;BME280;42994;51.606;9.988;2023-04-23T13:06:33;98053.16;;;20.05;71.75
57114;BME280;42994;51.606;9.988;2023-04-23T13:09:00;98062.16;;;19.90;72.85
57114;BME280;42994;51.606;9.988;2023-04-23T13:11:30;98068.94;;;20.08;71.54
57114;BME280;42994;51.606;9.988;2023-04-23T13:13:56;98056.66;;;20.06;70.42
57114;BME280;42994;51.606;9.988;2023-04-23T13:16:24;98054.03;;;19.75;69.85
57114;BME280;42994;51.606;9.988;2023-04-23T13:18:51;98049.63;;;20.00;70.12
57114;BME280;42994;51.606;9.988;2023-04-23T13:21:18;98051.03;;;19.82;67.96